createdAt,value
2018-11-25T00:00:03.361Z,7.54
2018-11-25T00:00:29.464Z,7.47
2018-11-25T00:00:55.662Z,7.48
2018-11-25T00:01:21.819Z,7.43
2018-11-25T00:01:47.927Z,7.51
2018-11-25T00:02:14.063Z,7.48
2018-11-25T00:02:40.221Z,7.45
2018-11-25T00:03:06.393Z,7.45
2018-11-25T00:03:32.502Z,7.48
2018-11-25T00:03:58.624Z,7.53
2018-11-25T00:04:24.724Z,7.47
2018-11-25T00:04:50.857Z,7.5
2018-11-25T00:05:17.024Z,7.42
2018-11-25T00:05:43.183Z,7.48
2018-11-25T00:06:09.313Z,7.43
2018-11-25T00:06:35.418Z,7.45
2018-11-25T00:07:01.516Z,7.45
2018-11-25T00:07:34.589Z,7.48
2018-11-25T00:07:53.881Z,7.47
2018-11-25T00:08:20.050Z,7.48
2018-11-25T00:08:46.169Z,7.51
2018-11-25T00:09:12.338Z,7.5
2018-11-25T00:09:38.471Z,7.5
2018-11-25T00:10:04.637Z,7.5
2018-11-25T00:10:30.800Z,7.57
2018-11-25T00:10:56.941Z,7.48
2018-11-25T00:11:23.101Z,7.53
2018-11-25T00:11:49.310Z,7.51
2018-11-25T00:12:15.462Z,7.54
2018-11-25T00:12:41.596Z,7.51
2018-11-25T00:13:07.787Z,7.5
2018-11-25T00:13:33.895Z,7.56
2018-11-25T00:14:00.038Z,7.53
2018-11-25T00:14:26.138Z,7.58
2018-11-25T00:14:52.274Z,7.5
2018-11-25T00:15:18.444Z,7.61
2018-11-25T00:15:44.637Z,7.51
2018-11-25T00:16:10.778Z,7.5
2018-11-25T00:16:36.913Z,7.56
2018-11-25T00:17:03.033Z,7.6
2018-11-25T00:17:29.159Z,7.53
2018-11-25T00:17:55.316Z,7.5
2018-11-25T00:18:21.453Z,7.58
2018-11-25T00:18:47.588Z,7.6
2018-11-25T00:19:13.776Z,7.61
2018-11-25T00:19:39.899Z,7.54
2018-11-25T00:20:06.011Z,7.69
2018-11-25T00:20:32.224Z,7.57
2018-11-25T00:20:58.361Z,7.63
2018-11-25T00:21:24.518Z,7.6
2018-11-25T00:21:50.626Z,7.57
2018-11-25T00:22:16.872Z,7.63
2018-11-25T00:22:43.033Z,7.6
2018-11-25T00:23:09.201Z,7.61
2018-11-25T00:23:35.333Z,7.56
2018-11-25T00:24:01.460Z,7.67
2018-11-25T00:24:27.626Z,7.56
2018-11-25T00:24:53.760Z,7.54
2018-11-25T00:25:19.916Z,7.61
2018-11-25T00:25:46.081Z,7.63
2018-11-25T00:26:12.243Z,7.66
2018-11-25T00:26:38.420Z,7.58
2018-11-25T00:27:04.587Z,7.51
2018-11-25T00:27:30.746Z,7.54
2018-11-25T00:27:56.856Z,7.66
2018-11-25T00:28:22.964Z,7.67
2018-11-25T00:28:49.099Z,7.54
2018-11-25T00:29:15.201Z,7.57
2018-11-25T00:29:41.363Z,7.67
2018-11-25T00:30:07.554Z,7.61
2018-11-25T00:30:33.724Z,7.58
2018-11-25T00:30:59.888Z,7.63
2018-11-25T00:31:26.020Z,7.54
2018-11-25T00:31:52.176Z,7.6
2018-11-25T00:32:18.334Z,7.61
2018-11-25T00:32:44.482Z,7.51
2018-11-25T00:33:10.669Z,7.6
2018-11-25T00:33:36.851Z,7.53
2018-11-25T00:34:02.976Z,7.63
2018-11-25T00:34:29.116Z,7.58
2018-11-25T00:34:55.304Z,7.56
2018-11-25T00:35:21.435Z,7.48
2018-11-25T00:35:47.572Z,7.47
2018-11-25T00:36:13.761Z,7.5
2018-11-25T00:36:39.950Z,7.42
2018-11-25T00:37:06.090Z,7.47
2018-11-25T00:37:32.275Z,7.43
2018-11-25T00:37:58.488Z,7.5
2018-11-25T00:38:24.642Z,7.45
2018-11-25T00:38:50.744Z,7.4
2018-11-25T00:39:16.888Z,7.43
2018-11-25T00:39:43.048Z,7.39
2018-11-25T00:40:09.179Z,7.48
2018-11-25T00:40:35.283Z,7.45
2018-11-25T00:41:01.419Z,7.45
2018-11-25T00:41:27.581Z,7.48
2018-11-25T00:41:53.711Z,7.45
2018-11-25T00:42:19.850Z,7.45
2018-11-25T00:42:45.982Z,7.43
2018-11-25T00:43:12.114Z,7.43
2018-11-25T00:43:38.217Z,7.42
2018-11-25T00:44:04.319Z,7.35
2018-11-25T00:44:30.483Z,7.38
2018-11-25T00:44:56.617Z,7.45
2018-11-25T00:45:22.813Z,7.4
2018-11-25T00:45:48.975Z,7.48
2018-11-25T00:46:15.121Z,7.43
2018-11-25T00:46:41.308Z,7.43
2018-11-25T00:47:07.443Z,7.39
2018-11-25T00:47:33.556Z,7.33
2018-11-25T00:47:59.651Z,7.47
2018-11-25T00:48:25.756Z,7.31
2018-11-25T00:48:51.896Z,7.43
2018-11-25T00:49:18.061Z,7.39
2018-11-25T00:49:44.203Z,7.48
2018-11-25T00:50:10.337Z,7.38
2018-11-25T00:50:36.566Z,7.42
2018-11-25T00:51:02.702Z,7.42
2018-11-25T00:51:28.865Z,7.4
2018-11-25T00:51:55.059Z,7.4
2018-11-25T00:52:21.200Z,7.4
2018-11-25T00:52:47.394Z,7.45
2018-11-25T00:53:13.448Z,7.36
2018-11-25T00:53:39.616Z,7.35
2018-11-25T00:54:05.789Z,7.39
2018-11-25T00:54:31.952Z,7.42
2018-11-25T00:54:58.084Z,7.43
2018-11-25T00:55:24.228Z,7.38
2018-11-25T00:55:50.389Z,7.42
2018-11-25T00:56:16.582Z,7.38
2018-11-25T00:56:42.746Z,7.43
2018-11-25T00:57:08.911Z,7.31
2018-11-25T00:57:35.037Z,7.38
2018-11-25T00:58:01.181Z,7.28
2018-11-25T00:58:27.339Z,7.29
2018-11-25T00:58:53.497Z,7.28
2018-11-25T00:59:19.631Z,7.38
2018-11-25T00:59:45.796Z,7.32
2018-11-25T01:00:11.904Z,7.42
2018-11-25T01:00:38.096Z,7.5
2018-11-25T01:01:04.257Z,7.38
2018-11-25T01:01:30.472Z,7.31
2018-11-25T01:01:56.693Z,7.36
2018-11-25T01:02:22.852Z,7.43
2018-11-25T01:02:49.007Z,7.45
2018-11-25T01:03:15.173Z,7.32
2018-11-25T01:03:41.283Z,7.4
2018-11-25T01:04:07.421Z,7.38
2018-11-25T01:04:33.523Z,7.38
2018-11-25T01:04:59.668Z,7.35
2018-11-25T01:05:25.803Z,7.42
2018-11-25T01:05:51.974Z,7.43
2018-11-25T01:06:18.103Z,7.42
2018-11-25T01:06:44.204Z,7.42
2018-11-25T01:07:10.344Z,7.4
2018-11-25T01:07:36.481Z,7.5
2018-11-25T01:08:02.644Z,7.48
2018-11-25T01:08:28.810Z,7.32
2018-11-25T01:08:54.963Z,7.31
2018-11-25T01:09:21.134Z,7.38
2018-11-25T01:09:47.268Z,7.4
2018-11-25T01:10:13.374Z,7.38
2018-11-25T01:10:39.503Z,7.4
2018-11-25T01:11:05.637Z,7.25
2018-11-25T01:11:31.807Z,7.25
2018-11-25T01:11:57.943Z,7.35
2018-11-25T01:12:24.051Z,7.28
2018-11-25T01:12:50.208Z,7.38
2018-11-25T01:13:16.436Z,7.29
2018-11-25T01:13:42.602Z,7.36
2018-11-25T01:14:08.796Z,7.33
2018-11-25T01:14:34.891Z,7.29
2018-11-25T01:15:01.023Z,7.29
2018-11-25T01:15:27.217Z,7.24
2018-11-25T01:15:53.354Z,7.35
2018-11-25T01:16:19.491Z,7.29
2018-11-25T01:16:45.598Z,7.28
2018-11-25T01:17:11.698Z,7.29
2018-11-25T01:17:37.862Z,7.29
2018-11-25T01:18:04.026Z,7.42
2018-11-25T01:18:30.153Z,7.28
2018-11-25T01:18:56.341Z,7.32
2018-11-25T01:19:22.506Z,7.33
2018-11-25T01:19:48.670Z,7.31
2018-11-25T01:20:14.775Z,7.28
2018-11-25T01:20:40.938Z,7.32
2018-11-25T01:21:07.102Z,7.29
2018-11-25T01:21:33.277Z,7.33
2018-11-25T01:21:59.429Z,7.33
2018-11-25T01:22:25.557Z,7.31
2018-11-25T01:22:51.716Z,7.24
2018-11-25T01:23:17.859Z,7.28
2018-11-25T01:23:44.051Z,7.28
2018-11-25T01:24:10.158Z,7.4
2018-11-25T01:24:36.294Z,7.42
2018-11-25T01:25:02.429Z,7.32
2018-11-25T01:25:28.589Z,7.38
2018-11-25T01:25:54.746Z,7.36
2018-11-25T01:26:20.909Z,7.4
2018-11-25T01:26:47.040Z,7.42
2018-11-25T01:27:13.157Z,7.38
2018-11-25T01:27:39.308Z,7.43
2018-11-25T01:28:05.417Z,7.39
2018-11-25T01:28:31.533Z,7.31
2018-11-25T01:28:57.631Z,7.36
2018-11-25T01:29:23.799Z,7.33
2018-11-25T01:29:49.952Z,7.42
2018-11-25T01:30:16.125Z,7.38
2018-11-25T01:30:42.225Z,7.4
2018-11-25T01:31:08.427Z,7.48
2018-11-25T01:31:34.534Z,7.45
2018-11-25T01:32:00.674Z,7.42
2018-11-25T01:32:26.922Z,7.35
2018-11-25T01:32:53.063Z,7.39
2018-11-25T01:33:19.216Z,7.4
2018-11-25T01:33:45.351Z,7.4
2018-11-25T01:34:11.511Z,7.4
2018-11-25T01:34:37.649Z,7.28
2018-11-25T01:35:04.829Z,7.42
2018-11-25T01:35:30.994Z,7.4
2018-11-25T01:35:57.332Z,7.39
2018-11-25T01:36:23.514Z,7.42
2018-11-25T01:36:49.685Z,7.38
2018-11-25T01:37:15.870Z,7.36
2018-11-25T01:37:41.981Z,7.42
2018-11-25T01:38:08.163Z,7.36
2018-11-25T01:38:34.307Z,7.48
2018-11-25T01:39:00.539Z,7.31
2018-11-25T01:39:26.739Z,7.42
2018-11-25T01:39:52.845Z,7.42
2018-11-25T01:40:18.978Z,7.43
2018-11-25T01:40:45.083Z,7.31
2018-11-25T01:41:11.222Z,7.42
2018-11-25T01:41:37.353Z,7.31
2018-11-25T01:42:03.462Z,7.38
2018-11-25T01:42:29.574Z,7.28
2018-11-25T01:42:55.713Z,7.28
2018-11-25T01:43:21.851Z,7.28
2018-11-25T01:43:47.986Z,7.42
2018-11-25T01:44:14.138Z,7.39
2018-11-25T01:44:40.271Z,7.31
2018-11-25T01:45:06.404Z,7.31
2018-11-25T01:45:32.574Z,7.29
2018-11-25T01:45:58.711Z,7.32
2018-11-25T01:46:24.848Z,7.31
2018-11-25T01:46:51.019Z,7.31
2018-11-25T01:47:17.168Z,7.33
2018-11-25T01:47:43.302Z,7.38
2018-11-25T01:48:09.410Z,7.31
2018-11-25T01:48:35.576Z,7.28
2018-11-25T01:49:01.713Z,7.28
2018-11-25T01:49:27.895Z,7.29
2018-11-25T01:49:54.001Z,7.42
2018-11-25T01:50:20.171Z,7.36
2018-11-25T01:50:46.326Z,7.38
2018-11-25T01:51:12.427Z,7.42
2018-11-25T01:51:38.567Z,7.31
2018-11-25T01:52:04.712Z,7.36
2018-11-25T01:52:30.841Z,7.43
2018-11-25T01:52:57.036Z,7.31
2018-11-25T01:53:23.179Z,7.4
2018-11-25T01:53:49.315Z,7.39
2018-11-25T01:54:15.450Z,7.35
2018-11-25T01:54:41.606Z,7.42
2018-11-25T01:55:07.719Z,7.4
2018-11-25T01:55:33.885Z,7.4
2018-11-25T01:56:00.030Z,7.47
2018-11-25T01:56:26.121Z,7.43
2018-11-25T01:56:52.278Z,7.36
2018-11-25T01:57:18.417Z,7.4
2018-11-25T01:57:44.614Z,7.36
2018-11-25T01:58:10.751Z,7.4
2018-11-25T01:58:36.888Z,7.4
2018-11-25T01:59:03.051Z,7.36
2018-11-25T01:59:29.200Z,7.39
2018-11-25T01:59:55.372Z,7.35
2018-11-25T02:00:21.574Z,7.4
2018-11-25T02:00:47.715Z,7.38
2018-11-25T02:01:13.913Z,7.31
2018-11-25T02:01:40.108Z,7.43
2018-11-25T02:02:06.268Z,7.39
2018-11-25T02:02:32.402Z,7.29
2018-11-25T02:02:58.566Z,7.24
2018-11-25T02:03:24.736Z,7.36
2018-11-25T02:03:51.045Z,7.47
2018-11-25T02:04:17.165Z,7.39
2018-11-25T02:04:43.328Z,7.47
2018-11-25T02:05:09.493Z,7.33
2018-11-25T02:05:35.601Z,7.28
2018-11-25T02:06:01.828Z,7.39
2018-11-25T02:06:28.057Z,7.29
2018-11-25T02:06:54.163Z,7.38
2018-11-25T02:07:20.297Z,7.42
2018-11-25T02:07:46.510Z,7.36
2018-11-25T02:08:12.615Z,7.36
2018-11-25T02:08:38.807Z,7.29
2018-11-25T02:09:04.942Z,7.28
2018-11-25T02:09:31.049Z,7.43
2018-11-25T02:09:57.211Z,7.48
2018-11-25T02:10:23.342Z,7.29
2018-11-25T02:10:49.456Z,7.29
2018-11-25T02:11:15.592Z,7.29
2018-11-25T02:11:41.748Z,7.29
2018-11-25T02:12:07.850Z,7.38
2018-11-25T02:12:34.014Z,7.31
2018-11-25T02:13:00.179Z,7.28
2018-11-25T02:13:26.313Z,7.4
2018-11-25T02:13:52.424Z,7.32
2018-11-25T02:14:18.559Z,7.24
2018-11-25T02:14:44.699Z,7.31
2018-11-25T02:15:10.860Z,7.42
2018-11-25T02:15:37.028Z,7.31
2018-11-25T02:16:03.161Z,7.25
2018-11-25T02:16:29.329Z,7.35
2018-11-25T02:16:55.466Z,7.28
2018-11-25T02:17:21.603Z,7.31
2018-11-25T02:17:47.735Z,7.32
2018-11-25T02:18:13.865Z,7.23
2018-11-25T02:18:40.024Z,7.45
2018-11-25T02:19:06.152Z,7.35
2018-11-25T02:19:32.339Z,7.38
2018-11-25T02:19:58.476Z,7.28
2018-11-25T02:20:24.581Z,7.36
2018-11-25T02:20:50.740Z,7.28
2018-11-25T02:21:16.878Z,7.31
2018-11-25T02:21:43.013Z,7.28
2018-11-25T02:22:09.155Z,7.21
2018-11-25T02:22:35.329Z,7.35
2018-11-25T02:23:01.464Z,7.32
2018-11-25T02:23:27.595Z,7.31
2018-11-25T02:23:53.754Z,7.33
2018-11-25T02:24:19.855Z,7.42
2018-11-25T02:24:46.052Z,7.35
2018-11-25T02:25:12.237Z,7.33
2018-11-25T02:25:38.402Z,7.32
2018-11-25T02:26:04.562Z,7.32
2018-11-25T02:26:30.732Z,7.32
2018-11-25T02:26:56.862Z,7.4
2018-11-25T02:27:23.023Z,7.21
2018-11-25T02:27:49.119Z,7.45
2018-11-25T02:28:15.237Z,7.24
2018-11-25T02:28:41.374Z,7.29
2018-11-25T02:29:07.540Z,7.32
2018-11-25T02:29:33.665Z,7.33
2018-11-25T02:29:59.809Z,7.24
2018-11-25T02:30:26.005Z,7.28
2018-11-25T02:30:52.255Z,7.31
2018-11-25T02:31:18.363Z,7.35
2018-11-25T02:31:44.527Z,7.29
2018-11-25T02:32:10.637Z,7.28
2018-11-25T02:32:36.742Z,7.33
2018-11-25T02:33:02.878Z,7.35
2018-11-25T02:33:28.981Z,7.32
2018-11-25T02:33:55.144Z,7.35
2018-11-25T02:34:21.249Z,7.29
2018-11-25T02:34:47.390Z,7.28
2018-11-25T02:35:13.540Z,7.25
2018-11-25T02:35:39.643Z,7.25
2018-11-25T02:36:05.779Z,7.31
2018-11-25T02:36:31.941Z,7.24
2018-11-25T02:36:58.075Z,7.25
2018-11-25T02:37:24.237Z,7.28
2018-11-25T02:37:50.436Z,7.29
2018-11-25T02:38:16.539Z,7.35
2018-11-25T02:38:42.647Z,7.35
2018-11-25T02:39:08.866Z,7.31
2018-11-25T02:39:34.984Z,7.28
2018-11-25T02:40:01.179Z,7.29
2018-11-25T02:40:27.362Z,7.23
2018-11-25T02:40:53.555Z,7.33
2018-11-25T02:41:19.725Z,7.31
2018-11-25T02:41:45.866Z,7.32
2018-11-25T02:42:12.011Z,7.42
2018-11-25T02:42:38.146Z,7.28
2018-11-25T02:43:04.334Z,7.4
2018-11-25T02:43:30.491Z,7.4
2018-11-25T02:43:56.659Z,7.25
2018-11-25T02:44:22.791Z,7.38
2018-11-25T02:44:48.909Z,7.31
2018-11-25T02:45:15.032Z,7.28
2018-11-25T02:45:41.221Z,7.32
2018-11-25T02:46:07.388Z,7.38
2018-11-25T02:46:33.552Z,7.4
2018-11-25T02:46:59.694Z,7.32
2018-11-25T02:47:25.803Z,7.4
2018-11-25T02:47:51.908Z,7.36
2018-11-25T02:48:18.069Z,7.36
2018-11-25T02:48:44.199Z,7.39
2018-11-25T02:49:10.345Z,7.25
2018-11-25T02:49:36.483Z,7.33
2018-11-25T02:50:02.647Z,7.33
2018-11-25T02:50:28.746Z,7.33
2018-11-25T02:50:54.856Z,7.33
2018-11-25T02:51:21.016Z,7.36
2018-11-25T02:51:47.154Z,7.35
2018-11-25T02:52:13.260Z,7.25
2018-11-25T02:52:39.390Z,7.32
2018-11-25T02:53:05.529Z,7.29
2018-11-25T02:53:31.665Z,7.33
2018-11-25T02:53:57.828Z,7.32
2018-11-25T02:54:23.988Z,7.25
2018-11-25T02:54:50.123Z,7.31
2018-11-25T02:55:16.286Z,7.24
2018-11-25T02:55:42.407Z,7.35
2018-11-25T02:56:08.571Z,7.29
2018-11-25T02:56:34.681Z,7.21
2018-11-25T02:57:00.808Z,7.32
2018-11-25T02:57:27.000Z,7.31
2018-11-25T02:57:53.104Z,7.35
2018-11-25T02:58:19.271Z,7.33
2018-11-25T02:58:45.399Z,7.32
2018-11-25T02:59:11.562Z,7.35
2018-11-25T02:59:37.700Z,7.33
2018-11-25T03:00:03.799Z,7.29
2018-11-25T03:00:29.932Z,7.25
2018-11-25T03:00:56.112Z,7.32
2018-11-25T03:01:22.217Z,7.28
2018-11-25T03:01:48.348Z,7.25
2018-11-25T03:02:14.519Z,7.25
2018-11-25T03:02:40.657Z,7.35
2018-11-25T03:03:06.847Z,7.2
2018-11-25T03:03:33.019Z,7.24
2018-11-25T03:03:59.139Z,7.31
2018-11-25T03:04:25.305Z,7.24
2018-11-25T03:04:51.494Z,7.24
2018-11-25T03:05:17.624Z,7.28
2018-11-25T03:05:43.780Z,7.23
2018-11-25T03:06:10.002Z,7.15
2018-11-25T03:06:36.142Z,7.23
2018-11-25T03:07:02.310Z,7.23
2018-11-25T03:07:28.472Z,7.24
2018-11-25T03:07:54.624Z,7.18
2018-11-25T03:08:20.785Z,7.17
2018-11-25T03:08:46.890Z,7.25
2018-11-25T03:09:13.023Z,7.28
2018-11-25T03:09:39.198Z,7.24
2018-11-25T03:10:05.363Z,7.2
2018-11-25T03:10:31.505Z,7.2
2018-11-25T03:10:57.670Z,7.23
2018-11-25T03:11:23.827Z,7.2
2018-11-25T03:11:49.933Z,7.18
2018-11-25T03:12:16.063Z,7.23
2018-11-25T03:12:42.197Z,7.23
2018-11-25T03:13:08.363Z,7.18
2018-11-25T03:13:34.515Z,7.17
2018-11-25T03:14:00.682Z,7.13
2018-11-25T03:14:26.798Z,7.14
2018-11-25T03:14:52.921Z,7.24
2018-11-25T03:15:19.091Z,7.17
2018-11-25T03:15:45.281Z,7.29
2018-11-25T03:16:11.443Z,7.23
2018-11-25T03:16:37.604Z,7.28
2018-11-25T03:17:03.739Z,7.24
2018-11-25T03:17:29.849Z,7.23
2018-11-25T03:17:56.015Z,7.28
2018-11-25T03:18:22.196Z,7.25
2018-11-25T03:18:48.332Z,7.25
2018-11-25T03:19:14.462Z,7.31
2018-11-25T03:19:40.632Z,7.31
2018-11-25T03:20:06.764Z,7.15
2018-11-25T03:20:32.879Z,7.17
2018-11-25T03:20:59.017Z,7.17
2018-11-25T03:21:25.180Z,7.21
2018-11-25T03:21:51.315Z,7.17
2018-11-25T03:22:17.447Z,7.24
2018-11-25T03:22:43.554Z,7.18
2018-11-25T03:23:09.684Z,7.24
2018-11-25T03:23:35.856Z,7.17
2018-11-25T03:24:01.996Z,7.21
2018-11-25T03:24:28.132Z,7.14
2018-11-25T03:24:54.263Z,7.15
2018-11-25T03:25:20.377Z,7.18
2018-11-25T03:25:46.512Z,7.21
2018-11-25T03:26:12.643Z,7.18
2018-11-25T03:26:38.768Z,7.24
2018-11-25T03:27:04.897Z,7.23
2018-11-25T03:27:31.006Z,7.29
2018-11-25T03:27:57.145Z,7.31
2018-11-25T03:28:23.249Z,7.29
2018-11-25T03:28:49.390Z,7.28
2018-11-25T03:29:15.526Z,7.28
2018-11-25T03:29:41.686Z,7.35
2018-11-25T03:30:07.796Z,7.33
2018-11-25T03:30:33.960Z,7.38
2018-11-25T03:31:00.094Z,7.47
2018-11-25T03:31:26.193Z,7.38
2018-11-25T03:31:52.307Z,7.43
2018-11-25T03:32:18.411Z,7.4
2018-11-25T03:32:44.539Z,7.45
2018-11-25T03:33:10.734Z,7.4
2018-11-25T03:33:36.871Z,7.38
2018-11-25T03:34:03.040Z,7.31
2018-11-25T03:34:29.206Z,7.4
2018-11-25T03:34:55.311Z,7.48
2018-11-25T03:35:21.412Z,7.42
2018-11-25T03:35:47.580Z,7.45
2018-11-25T03:36:13.765Z,7.48
2018-11-25T03:36:39.906Z,7.29
2018-11-25T03:37:06.084Z,7.24
2018-11-25T03:37:32.201Z,7.35
2018-11-25T03:37:58.392Z,7.36
2018-11-25T03:38:24.556Z,7.42
2018-11-25T03:38:50.721Z,7.4
2018-11-25T03:39:16.826Z,7.45
2018-11-25T03:39:43.013Z,7.36
2018-11-25T03:40:09.149Z,7.42
2018-11-25T03:40:35.285Z,7.45
2018-11-25T03:41:01.446Z,7.43
2018-11-25T03:41:27.642Z,7.43
2018-11-25T03:41:53.782Z,7.43
2018-11-25T03:42:19.918Z,7.48
2018-11-25T03:42:46.023Z,7.48
2018-11-25T03:43:12.185Z,7.42
2018-11-25T03:43:38.477Z,7.4
2018-11-25T03:44:04.606Z,7.43
2018-11-25T03:44:30.705Z,7.38
2018-11-25T03:44:56.840Z,7.43
2018-11-25T03:45:23.005Z,7.47
2018-11-25T03:45:49.174Z,7.43
2018-11-25T03:46:15.298Z,7.48
2018-11-25T03:46:41.437Z,7.48
2018-11-25T03:47:07.572Z,7.45
2018-11-25T03:47:33.729Z,7.43
2018-11-25T03:47:59.858Z,7.4
2018-11-25T03:48:26.026Z,7.42
2018-11-25T03:48:52.197Z,7.47
2018-11-25T03:49:18.364Z,7.31
2018-11-25T03:49:44.493Z,7.35
2018-11-25T03:50:10.657Z,7.28
2018-11-25T03:50:36.884Z,7.33
2018-11-25T03:51:03.039Z,7.31
2018-11-25T03:51:29.146Z,7.29
2018-11-25T03:51:55.282Z,7.28
2018-11-25T03:52:21.391Z,7.36
2018-11-25T03:52:47.554Z,7.29
2018-11-25T03:53:13.679Z,7.38
2018-11-25T03:53:39.790Z,7.38
2018-11-25T03:54:05.955Z,7.32
2018-11-25T03:54:32.061Z,7.47
2018-11-25T03:54:58.252Z,7.42
2018-11-25T03:55:24.449Z,7.31
2018-11-25T03:55:50.586Z,7.28
2018-11-25T03:56:16.714Z,7.4
2018-11-25T03:56:42.850Z,7.43
2018-11-25T03:57:08.983Z,7.4
2018-11-25T03:57:35.095Z,7.38
2018-11-25T03:58:01.264Z,7.4
2018-11-25T03:58:27.403Z,7.21
2018-11-25T03:58:53.532Z,7.39
2018-11-25T03:59:19.633Z,7.39
2018-11-25T03:59:45.770Z,7.4
2018-11-25T04:00:11.930Z,7.36
2018-11-25T04:00:38.037Z,7.42
2018-11-25T04:01:04.199Z,7.45
2018-11-25T04:01:30.338Z,7.5
2018-11-25T04:01:56.477Z,7.45
2018-11-25T04:02:22.663Z,7.47
2018-11-25T04:02:48.819Z,7.4
2018-11-25T04:03:14.962Z,7.45
2018-11-25T04:03:41.095Z,7.43
2018-11-25T04:04:07.267Z,7.42
2018-11-25T04:04:33.377Z,7.45
2018-11-25T04:04:59.509Z,7.39
2018-11-25T04:05:25.609Z,7.43
2018-11-25T04:05:51.750Z,7.4
2018-11-25T04:06:17.917Z,7.39
2018-11-25T04:06:44.072Z,7.51
2018-11-25T04:07:10.203Z,7.48
2018-11-25T04:07:36.359Z,7.43
2018-11-25T04:08:02.534Z,7.45
2018-11-25T04:08:28.679Z,7.48
2018-11-25T04:08:54.807Z,7.42
2018-11-25T04:09:20.977Z,7.48
2018-11-25T04:09:47.142Z,7.42
2018-11-25T04:10:13.278Z,7.43
2018-11-25T04:10:39.451Z,7.36
2018-11-25T04:11:05.551Z,7.45
2018-11-25T04:11:31.721Z,7.35
2018-11-25T04:11:57.885Z,7.31
2018-11-25T04:12:24.080Z,7.33
2018-11-25T04:12:50.332Z,7.33
2018-11-25T04:13:16.469Z,7.29
2018-11-25T04:13:42.576Z,7.24
2018-11-25T04:14:08.768Z,7.32
2018-11-25T04:14:34.954Z,7.31
2018-11-25T04:15:01.085Z,7.29
2018-11-25T04:15:27.217Z,7.31
2018-11-25T04:15:53.378Z,7.25
2018-11-25T04:16:19.544Z,7.24
2018-11-25T04:16:45.677Z,7.29
2018-11-25T04:17:11.871Z,7.28
2018-11-25T04:17:38.033Z,7.23
2018-11-25T04:18:04.170Z,7.24
2018-11-25T04:18:30.309Z,7.2
2018-11-25T04:18:56.497Z,7.25
2018-11-25T04:19:22.723Z,7.14
2018-11-25T04:19:48.893Z,7.28
2018-11-25T04:20:15.029Z,7.24
2018-11-25T04:20:41.214Z,7.31
2018-11-25T04:21:07.383Z,7.32
2018-11-25T04:21:33.522Z,7.29
2018-11-25T04:21:59.625Z,7.31
2018-11-25T04:22:25.807Z,7.33
2018-11-25T04:22:51.996Z,7.31
2018-11-25T04:23:18.131Z,7.35
2018-11-25T04:23:44.358Z,7.29
2018-11-25T04:24:10.508Z,7.33
2018-11-25T04:24:36.648Z,7.31
2018-11-25T04:25:02.811Z,7.36
2018-11-25T04:25:29.006Z,7.47
2018-11-25T04:25:55.130Z,7.32
2018-11-25T04:26:21.270Z,7.25
2018-11-25T04:26:47.369Z,7.36
2018-11-25T04:27:13.471Z,7.43
2018-11-25T04:27:39.630Z,7.31
2018-11-25T04:28:05.798Z,7.32
2018-11-25T04:28:31.933Z,7.31
2018-11-25T04:28:58.081Z,7.29
2018-11-25T04:29:24.198Z,7.25
2018-11-25T04:29:50.357Z,7.25
2018-11-25T04:30:16.498Z,7.33
2018-11-25T04:30:42.711Z,7.31
2018-11-25T04:31:08.847Z,7.42
2018-11-25T04:31:34.957Z,7.31
2018-11-25T04:32:01.124Z,7.24
2018-11-25T04:32:27.266Z,7.36
2018-11-25T04:32:53.393Z,7.38
2018-11-25T04:33:19.548Z,7.42
2018-11-25T04:33:45.714Z,7.36
2018-11-25T04:34:11.871Z,7.31
2018-11-25T04:34:38.038Z,7.43
2018-11-25T04:35:04.171Z,7.42
2018-11-25T04:35:30.364Z,7.35
2018-11-25T04:35:56.531Z,7.31
2018-11-25T04:36:22.719Z,7.33
2018-11-25T04:36:48.854Z,7.31
2018-11-25T04:37:15.015Z,7.28
2018-11-25T04:37:41.176Z,7.29
2018-11-25T04:38:07.316Z,7.28
2018-11-25T04:38:33.507Z,7.24
2018-11-25T04:38:59.680Z,7.24
2018-11-25T04:39:25.790Z,7.24
2018-11-25T04:39:51.924Z,7.28
2018-11-25T04:40:18.039Z,7.29
2018-11-25T04:40:44.226Z,7.23
2018-11-25T04:41:10.370Z,7.23
2018-11-25T04:41:36.509Z,7.21
2018-11-25T04:42:02.675Z,7.28
2018-11-25T04:42:28.787Z,7.17
2018-11-25T04:42:54.890Z,7.2
2018-11-25T04:43:20.999Z,7.21
2018-11-25T04:43:47.099Z,7.31
2018-11-25T04:44:13.212Z,7.23
2018-11-25T04:44:39.383Z,7.28
2018-11-25T04:45:05.486Z,7.25
2018-11-25T04:45:31.622Z,7.23
2018-11-25T04:45:57.781Z,7.18
2018-11-25T04:46:23.886Z,7.15
2018-11-25T04:46:50.053Z,7.23
2018-11-25T04:47:16.214Z,7.21
2018-11-25T04:47:42.381Z,7.21
2018-11-25T04:48:08.565Z,7.2
2018-11-25T04:48:34.671Z,7.15
2018-11-25T04:49:00.802Z,7.11
2018-11-25T04:49:26.957Z,7.14
2018-11-25T04:49:53.120Z,7.15
2018-11-25T04:50:19.253Z,7.07
2018-11-25T04:50:45.392Z,7.06
2018-11-25T04:51:11.494Z,7.17
2018-11-25T04:51:37.593Z,7.15
2018-11-25T04:52:03.756Z,7.1
2018-11-25T04:52:29.939Z,7.15
2018-11-25T04:52:56.841Z,7.1
2018-11-25T04:53:22.976Z,7.11
2018-11-25T04:53:49.106Z,7.11
2018-11-25T04:54:15.331Z,7.18
2018-11-25T04:54:41.459Z,7.2
2018-11-25T04:55:07.649Z,7.17
2018-11-25T04:55:33.850Z,7.14
2018-11-25T04:55:59.949Z,7.13
2018-11-25T04:56:26.060Z,7.14
2018-11-25T04:56:52.250Z,7.13
2018-11-25T04:57:18.403Z,7.14
2018-11-25T04:57:44.540Z,7.15
2018-11-25T04:58:10.670Z,7.07
2018-11-25T04:58:36.836Z,7.11
2018-11-25T04:59:02.969Z,7.07
2018-11-25T04:59:29.139Z,7.1
2018-11-25T04:59:55.268Z,7.1
2018-11-25T05:00:21.489Z,7.15
2018-11-25T05:00:47.680Z,7.13
2018-11-25T05:01:13.876Z,7.17
2018-11-25T05:01:40.042Z,7.1
2018-11-25T05:02:06.145Z,7.1
2018-11-25T05:02:32.283Z,7.1
2018-11-25T05:02:58.420Z,7.17
2018-11-25T05:03:24.589Z,7.17
2018-11-25T05:03:50.723Z,7.18
2018-11-25T05:04:16.835Z,7.25
2018-11-25T05:04:43.019Z,7.2
2018-11-25T05:05:09.197Z,7.21
2018-11-25T05:05:35.362Z,7.18
2018-11-25T05:06:01.494Z,7.21
2018-11-25T05:06:27.685Z,7.15
2018-11-25T05:06:53.836Z,7.17
2018-11-25T05:07:19.996Z,7.14
2018-11-25T05:07:46.131Z,7.18
2018-11-25T05:08:12.298Z,7.17
2018-11-25T05:08:38.422Z,7.18
2018-11-25T05:09:04.578Z,7.24
2018-11-25T05:09:30.745Z,7.24
2018-11-25T05:09:56.905Z,7.24
2018-11-25T05:10:23.004Z,7.14
2018-11-25T05:10:49.132Z,7.17
2018-11-25T05:11:15.264Z,7.13
2018-11-25T05:11:41.398Z,7.23
2018-11-25T05:12:07.507Z,7.24
2018-11-25T05:12:33.654Z,7.13
2018-11-25T05:12:59.789Z,7.15
2018-11-25T05:13:25.959Z,7.21
2018-11-25T05:13:52.092Z,7.24
2018-11-25T05:14:18.247Z,7.25
2018-11-25T05:14:44.352Z,7.14
2018-11-25T05:15:10.576Z,7.17
2018-11-25T05:15:36.738Z,7.24
2018-11-25T05:16:02.896Z,7.28
2018-11-25T05:16:29.093Z,7.32
2018-11-25T05:16:55.221Z,7.25
2018-11-25T05:17:21.401Z,7.33
2018-11-25T05:17:47.539Z,7.32
2018-11-25T05:18:13.642Z,7.36
2018-11-25T05:18:39.771Z,7.32
2018-11-25T05:19:05.904Z,7.38
2018-11-25T05:19:32.095Z,7.39
2018-11-25T05:19:58.200Z,7.31
2018-11-25T05:20:24.335Z,7.33
2018-11-25T05:20:50.439Z,7.38
2018-11-25T05:21:16.610Z,7.42
2018-11-25T05:21:42.763Z,7.47
2018-11-25T05:22:08.900Z,7.39
2018-11-25T05:22:35.031Z,7.29
2018-11-25T05:23:01.134Z,7.4
2018-11-25T05:23:27.267Z,7.42
2018-11-25T05:23:53.403Z,7.5
2018-11-25T05:24:19.509Z,7.4
2018-11-25T05:24:45.696Z,7.36
2018-11-25T05:25:11.882Z,7.36
2018-11-25T05:25:38.044Z,7.43
2018-11-25T05:26:04.151Z,7.4
2018-11-25T05:26:30.319Z,7.42
2018-11-25T05:26:56.446Z,7.31
2018-11-25T05:27:22.618Z,7.47
2018-11-25T05:27:48.781Z,7.47
2018-11-25T05:28:14.887Z,7.36
2018-11-25T05:28:41.042Z,7.39
2018-11-25T05:29:07.211Z,7.4
2018-11-25T05:29:33.364Z,7.31
2018-11-25T05:29:59.506Z,7.29
2018-11-25T05:30:25.696Z,7.35
2018-11-25T05:30:51.852Z,7.42
2018-11-25T05:31:18.018Z,7.35
2018-11-25T05:31:44.178Z,7.31
2018-11-25T05:32:10.344Z,7.31
2018-11-25T05:32:36.533Z,7.24
2018-11-25T05:33:02.718Z,7.25
2018-11-25T05:33:28.882Z,7.25
2018-11-25T05:33:55.044Z,7.23
2018-11-25T05:34:21.187Z,7.23
2018-11-25T05:34:47.339Z,7.15
2018-11-25T05:35:13.441Z,7.15
2018-11-25T05:35:39.632Z,7.23
2018-11-25T05:36:05.759Z,7.28
2018-11-25T05:36:31.923Z,7.28
2018-11-25T05:36:58.084Z,7.18
2018-11-25T05:37:24.280Z,7.18
2018-11-25T05:37:50.474Z,7.21
2018-11-25T05:38:16.601Z,7.18
2018-11-25T05:38:42.711Z,7.24
2018-11-25T05:39:08.868Z,7.15
2018-11-25T05:39:35.004Z,7.17
2018-11-25T05:40:01.199Z,7.18
2018-11-25T05:40:27.332Z,7.14
2018-11-25T05:40:53.468Z,7.15
2018-11-25T05:41:19.573Z,7.32
2018-11-25T05:41:45.717Z,7.25
2018-11-25T05:42:11.877Z,7.28
2018-11-25T05:42:38.017Z,7.25
2018-11-25T05:43:04.173Z,7.28
2018-11-25T05:43:30.380Z,7.25
2018-11-25T05:43:56.476Z,7.36
2018-11-25T05:44:22.668Z,7.32
2018-11-25T05:44:48.802Z,7.33
2018-11-25T05:45:14.991Z,7.28
2018-11-25T05:45:41.171Z,7.29
2018-11-25T05:46:07.277Z,7.29
2018-11-25T05:46:33.414Z,7.29
2018-11-25T05:46:59.551Z,7.33
2018-11-25T05:47:25.686Z,7.33
2018-11-25T05:47:51.817Z,7.25
2018-11-25T05:48:17.923Z,7.29
2018-11-25T05:48:44.016Z,7.25
2018-11-25T05:49:10.159Z,7.31